KSFY

Tri-Township Airport

Savanna, Illinois, USA
METAR KSFY 280035Z AUTO 00000KT 10SM CLR 30/21 A2983 RMK AO2 T03030214
Observed Flight Rules
May-28 @ 00:35 UTC (27 minutes ago) Visual Flight Rules
Visibility Clouds
10 miles
  • Clear skies
Temperatures Readings
Current 30°C / 86°F
Dewpoint 21°C / 70°F
Humidity 59%
Altimeter 29.83" Hg
Pressure 1010 hPa
Elevation 188
METAR KSFY 280035Z AUTO 00000KT 10SM CLR 30/21 A2983 RMK AO2 T03030214
Observed Flight Rules
May-28 @ 00:35 UTC
(27 minutes ago)
VFR
Clouds
  • Clear skies
Temperature Dewpoint
30°C / 86°F 21°C / 70°F
Humidity Altimeter Pressure
59% 29.83" Hg 1010 hPa